sensor_id;sensor_type;location;lat;lon;timestamp;P1;durP1;ratioP1;P2;durP2;ratioP2
60819;SDS011;46641;48.904;9.126;2024-03-06T00:02:07;5.37;;;3.37;;
60819;SDS011;46641;48.904;9.126;2024-03-06T00:06:58;4.07;;;3.60;;
60819;SDS011;46641;48.904;9.126;2024-03-06T00:11:49;4.73;;;3.20;;
60819;SDS011;46641;48.904;9.126;2024-03-06T00:16:42;3.87;;;3.30;;
60819;SDS011;46641;48.904;9.126;2024-03-06T00:21:33;5.10;;;3.92;;
60819;SDS011;46641;48.904;9.126;2024-03-06T00:26:23;4.77;;;3.50;;
60819;SDS011;46641;48.904;9.126;2024-03-06T00:31:13;4.13;;;3.63;;
60819;SDS011;46641;48.904;9.126;2024-03-06T00:36:04;4.10;;;3.45;;
60819;SDS011;46641;48.904;9.126;2024-03-06T00:40:54;4.17;;;3.70;;
60819;SDS011;46641;48.904;9.126;2024-03-06T00:45:47;6.20;;;3.87;;
60819;SDS011;46641;48.904;9.126;2024-03-06T00:50:37;3.95;;;3.15;;
60819;SDS011;46641;48.904;9.126;2024-03-06T00:55:27;3.70;;;3.17;;
60819;SDS011;46641;48.904;9.126;2024-03-06T01:00:19;3.50;;;3.20;;
60819;SDS011;46641;48.904;9.126;2024-03-06T01:05:09;3.63;;;3.33;;
60819;SDS011;46641;48.904;9.126;2024-03-06T01:10:00;3.50;;;3.20;;
60819;SDS011;46641;48.904;9.126;2024-03-06T01:14:51;3.53;;;2.97;;
60819;SDS011;46641;48.904;9.126;2024-03-06T01:19:41;4.27;;;3.37;;
60819;SDS011;46641;48.904;9.126;2024-03-06T01:24:34;3.67;;;3.20;;
60819;SDS011;46641;48.904;9.126;2024-03-06T01:29:25;3.60;;;3.13;;
60819;SDS011;46641;48.904;9.126;2024-03-06T01:34:15;4.90;;;2.97;;
60819;SDS011;46641;48.904;9.126;2024-03-06T01:39:05;3.47;;;3.13;;
60819;SDS011;46641;48.904;9.126;2024-03-06T01:43:56;4.07;;;3.63;;
60819;SDS011;46641;48.904;9.126;2024-03-06T01:48:47;4.40;;;3.47;;
60819;SDS011;46641;48.904;9.126;2024-03-06T01:53:37;4.10;;;3.10;;
60819;SDS011;46641;48.904;9.126;2024-03-06T01:58:28;4.20;;;3.47;;
60819;SDS011;46641;48.904;9.126;2024-03-06T02:03:18;3.80;;;3.23;;
60819;SDS011;46641;48.904;9.126;2024-03-06T02:08:12;3.43;;;2.87;;
60819;SDS011;46641;48.904;9.126;2024-03-06T02:13:02;2.67;;;2.47;;
60819;SDS011;46641;48.904;9.126;2024-03-06T02:17:52;2.73;;;2.53;;
60819;SDS011;46641;48.904;9.126;2024-03-06T02:22:45;2.60;;;2.40;;
60819;SDS011;46641;48.904;9.126;2024-03-06T02:27:36;2.53;;;2.27;;
60819;SDS011;46641;48.904;9.126;2024-03-06T02:32:27;3.43;;;2.70;;
60819;SDS011;46641;48.904;9.126;2024-03-06T02:37:17;3.00;;;2.80;;
60819;SDS011;46641;48.904;9.126;2024-03-06T02:42:08;3.00;;;2.60;;
60819;SDS011;46641;48.904;9.126;2024-03-06T02:46:58;2.72;;;2.38;;
60819;SDS011;46641;48.904;9.126;2024-03-06T02:51:49;4.80;;;3.03;;
60819;SDS011;46641;48.904;9.126;2024-03-06T02:56:39;3.17;;;2.87;;
60819;SDS011;46641;48.904;9.126;2024-03-06T03:01:30;3.60;;;2.53;;
60819;SDS011;46641;48.904;9.126;2024-03-06T03:06:20;3.40;;;2.67;;
60819;SDS011;46641;48.904;9.126;2024-03-06T03:11:10;2.57;;;2.37;;
60819;SDS011;46641;48.904;9.126;2024-03-06T03:16:01;2.93;;;2.50;;
60819;SDS011;46641;48.904;9.126;2024-03-06T03:20:53;2.97;;;2.67;;
60819;SDS011;46641;48.904;9.126;2024-03-06T03:25:44;3.38;;;3.08;;
60819;SDS011;46641;48.904;9.126;2024-03-06T03:30:36;3.20;;;2.60;;
60819;SDS011;46641;48.904;9.126;2024-03-06T03:35:26;3.42;;;2.70;;
60819;SDS011;46641;48.904;9.126;2024-03-06T03:40:16;2.90;;;2.70;;
60819;SDS011;46641;48.904;9.126;2024-03-06T03:45:07;4.27;;;2.77;;
60819;SDS011;46641;48.904;9.126;2024-03-06T03:49:57;3.90;;;2.70;;
60819;SDS011;46641;48.904;9.126;2024-03-06T03:54:49;2.90;;;2.60;;
60819;SDS011;46641;48.904;9.126;2024-03-06T03:59:39;4.07;;;2.97;;
60819;SDS011;46641;48.904;9.126;2024-03-06T04:04:31;2.97;;;2.53;;
60819;SDS011;46641;48.904;9.126;2024-03-06T04:09:21;3.07;;;2.87;;
60819;SDS011;46641;48.904;9.126;2024-03-06T04:14:11;4.07;;;3.30;;
60819;SDS011;46641;48.904;9.126;2024-03-06T04:19:02;3.50;;;2.97;;
60819;SDS011;46641;48.904;9.126;2024-03-06T04:23:53;3.23;;;2.70;;
60819;SDS011;46641;48.904;9.126;2024-03-06T04:28:44;3.27;;;2.83;;
60819;SDS011;46641;48.904;9.126;2024-03-06T04:33:34;3.07;;;2.73;;
60819;SDS011;46641;48.904;9.126;2024-03-06T04:38:24;3.63;;;2.85;;
60819;SDS011;46641;48.904;9.126;2024-03-06T04:43:15;3.60;;;3.20;;
60819;SDS011;46641;48.904;9.126;2024-03-06T04:48:05;6.63;;;3.63;;
60819;SDS011;46641;48.904;9.126;2024-03-06T04:52:56;3.53;;;3.23;;
60819;SDS011;46641;48.904;9.126;2024-03-06T04:57:47;4.27;;;3.47;;
60819;SDS011;46641;48.904;9.126;2024-03-06T05:02:37;3.40;;;3.10;;
60819;SDS011;46641;48.904;9.126;2024-03-06T05:07:28;5.27;;;3.27;;
60819;SDS011;46641;48.904;9.126;2024-03-06T05:12:19;3.00;;;2.80;;
60819;SDS011;46641;48.904;9.126;2024-03-06T05:17:09;3.58;;;3.22;;
60819;SDS011;46641;48.904;9.126;2024-03-06T05:22:00;3.67;;;2.83;;
60819;SDS011;46641;48.904;9.126;2024-03-06T05:26:50;3.73;;;3.23;;
60819;SDS011;46641;48.904;9.126;2024-03-06T05:31:41;3.63;;;2.90;;
60819;SDS011;46641;48.904;9.126;2024-03-06T05:36:31;3.50;;;3.20;;
60819;SDS011;46641;48.904;9.126;2024-03-06T05:41:21;4.70;;;3.27;;
60819;SDS011;46641;48.904;9.126;2024-03-06T05:46:12;3.53;;;2.92;;
60819;SDS011;46641;48.904;9.126;2024-03-06T05:51:02;3.50;;;2.83;;
60819;SDS011;46641;48.904;9.126;2024-03-06T05:55:53;3.30;;;3.00;;
60819;SDS011;46641;48.904;9.126;2024-03-06T06:00:44;4.20;;;3.23;;
60819;SDS011;46641;48.904;9.126;2024-03-06T06:05:34;4.18;;;2.85;;
60819;SDS011;46641;48.904;9.126;2024-03-06T06:10:26;3.70;;;3.00;;
60819;SDS011;46641;48.904;9.126;2024-03-06T06:15:17;5.57;;;2.90;;
60819;SDS011;46641;48.904;9.126;2024-03-06T06:20:07;2.73;;;2.23;;
60819;SDS011;46641;48.904;9.126;2024-03-06T06:24:59;4.32;;;3.92;;
60819;SDS011;46641;48.904;9.126;2024-03-06T06:29:49;5.00;;;3.17;;
60819;SDS011;46641;48.904;9.126;2024-03-06T06:34:40;3.47;;;3.17;;
60819;SDS011;46641;48.904;9.126;2024-03-06T06:39:30;5.20;;;3.80;;
60819;SDS011;46641;48.904;9.126;2024-03-06T06:44:20;5.60;;;3.80;;
60819;SDS011;46641;48.904;9.126;2024-03-06T06:49:11;4.67;;;3.53;;
60819;SDS011;46641;48.904;9.126;2024-03-06T06:54:01;6.67;;;3.83;;
60819;SDS011;46641;48.904;9.126;2024-03-06T06:58:52;6.47;;;3.90;;
60819;SDS011;46641;48.904;9.126;2024-03-06T07:03:43;4.57;;;3.97;;
60819;SDS011;46641;48.904;9.126;2024-03-06T07:08:33;4.73;;;3.50;;
60819;SDS011;46641;48.904;9.126;2024-03-06T07:13:23;3.50;;;3.20;;
60819;SDS011;46641;48.904;9.126;2024-03-06T07:18:14;4.23;;;3.53;;
60819;SDS011;46641;48.904;9.126;2024-03-06T07:23:04;5.90;;;3.77;;
60819;SDS011;46641;48.904;9.126;2024-03-06T07:27:54;5.82;;;3.33;;
60819;SDS011;46641;48.904;9.126;2024-03-06T07:32:45;4.33;;;3.80;;
60819;SDS011;46641;48.904;9.126;2024-03-06T07:37:35;6.07;;;3.65;;
60819;SDS011;46641;48.904;9.126;2024-03-06T07:42:25;3.90;;;3.33;;
60819;SDS011;46641;48.904;9.126;2024-03-06T07:47:16;4.50;;;3.63;;
60819;SDS011;46641;48.904;9.126;2024-03-06T07:52:06;5.47;;;3.80;;
60819;SDS011;46641;48.904;9.126;2024-03-06T07:56:56;4.20;;;3.80;;
60819;SDS011;46641;48.904;9.126;2024-03-06T08:01:46;4.70;;;3.97;;
60819;SDS011;46641;48.904;9.126;2024-03-06T08:06:38;5.30;;;3.70;;
60819;SDS011;46641;48.904;9.126;2024-03-06T08:11:28;6.03;;;3.35;;
60819;SDS011;46641;48.904;9.126;2024-03-06T08:16:18;4.40;;;3.30;;
60819;SDS011;46641;48.904;9.126;2024-03-06T08:21:08;3.67;;;3.38;;
60819;SDS011;46641;48.904;9.126;2024-03-06T08:25:59;4.97;;;4.47;;
60819;SDS011;46641;48.904;9.126;2024-03-06T08:30:50;4.20;;;3.80;;
60819;SDS011;46641;48.904;9.126;2024-03-06T08:35:42;6.60;;;4.20;;
60819;SDS011;46641;48.904;9.126;2024-03-06T08:40:34;5.33;;;3.53;;
60819;SDS011;46641;48.904;9.126;2024-03-06T08:45:24;3.30;;;3.00;;
60819;SDS011;46641;48.904;9.126;2024-03-06T08:50:15;5.50;;;4.32;;
60819;SDS011;46641;48.904;9.126;2024-03-06T08:55:06;4.27;;;3.90;;
60819;SDS011;46641;48.904;9.126;2024-03-06T08:59:57;5.83;;;4.00;;
60819;SDS011;46641;48.904;9.126;2024-03-06T09:04:48;3.87;;;3.57;;
60819;SDS011;46641;48.904;9.126;2024-03-06T09:09:38;5.73;;;3.60;;
60819;SDS011;46641;48.904;9.126;2024-03-06T09:14:29;6.23;;;4.50;;
60819;SDS011;46641;48.904;9.126;2024-03-06T09:19:19;5.93;;;4.38;;
60819;SDS011;46641;48.904;9.126;2024-03-06T09:24:09;4.93;;;4.33;;
60819;SDS011;46641;48.904;9.126;2024-03-06T09:29:00;5.13;;;3.93;;
60819;SDS011;46641;48.904;9.126;2024-03-06T09:33:51;4.43;;;3.80;;
60819;SDS011;46641;48.904;9.126;2024-03-06T09:38:41;5.35;;;4.85;;
60819;SDS011;46641;48.904;9.126;2024-03-06T09:43:31;6.13;;;5.53;;
60819;SDS011;46641;48.904;9.126;2024-03-06T09:48:22;8.03;;;6.17;;
60819;SDS011;46641;48.904;9.126;2024-03-06T09:53:12;6.70;;;6.20;;
60819;SDS011;46641;48.904;9.126;2024-03-06T09:58:04;8.90;;;8.10;;
60819;SDS011;46641;48.904;9.126;2024-03-06T10:02:58;7.70;;;7.00;;
60819;SDS011;46641;48.904;9.126;2024-03-06T10:07:51;8.10;;;7.30;;
60819;SDS011;46641;48.904;9.126;2024-03-06T10:12:42;9.40;;;8.37;;
60819;SDS011;46641;48.904;9.126;2024-03-06T10:17:34;8.70;;;7.87;;
60819;SDS011;46641;48.904;9.126;2024-03-06T10:22:24;10.57;;;9.57;;
60819;SDS011;46641;48.904;9.126;2024-03-06T10:27:15;10.67;;;9.27;;
60819;SDS011;46641;48.904;9.126;2024-03-06T10:32:07;12.13;;;10.90;;
60819;SDS011;46641;48.904;9.126;2024-03-06T10:36:58;12.83;;;11.53;;
60819;SDS011;46641;48.904;9.126;2024-03-06T10:41:51;10.27;;;9.17;;
60819;SDS011;46641;48.904;9.126;2024-03-06T10:46:43;13.17;;;10.20;;
60819;SDS011;46641;48.904;9.126;2024-03-06T10:51:37;11.60;;;10.30;;
60819;SDS011;46641;48.904;9.126;2024-03-06T10:56:32;12.20;;;10.77;;
60819;SDS011;46641;48.904;9.126;2024-03-06T11:01:23;13.37;;;12.00;;
60819;SDS011;46641;48.904;9.126;2024-03-06T11:06:14;15.00;;;13.30;;
60819;SDS011;46641;48.904;9.126;2024-03-06T11:11:23;13.03;;;11.73;;
60819;SDS011;46641;48.904;9.126;2024-03-06T11:16:14;14.83;;;13.23;;
60819;SDS011;46641;48.904;9.126;2024-03-06T11:25:55;12.80;;;11.33;;
60819;SDS011;46641;48.904;9.126;2024-03-06T11:30:51;14.70;;;13.20;;
60819;SDS011;46641;48.904;9.126;2024-03-06T11:41:09;14.90;;;12.13;;
60819;SDS011;46641;48.904;9.126;2024-03-06T11:46:09;14.60;;;13.05;;
60819;SDS011;46641;48.904;9.126;2024-03-06T11:51:01;18.63;;;15.57;;
60819;SDS011;46641;48.904;9.126;2024-03-06T11:55:52;9.80;;;8.77;;
60819;SDS011;46641;48.904;9.126;2024-03-06T12:00:42;21.00;;;18.90;;
60819;SDS011;46641;48.904;9.126;2024-03-06T12:05:35;18.63;;;13.60;;
60819;SDS011;46641;48.904;9.126;2024-03-06T12:10:27;15.20;;;13.60;;
60819;SDS011;46641;48.904;9.126;2024-03-06T12:15:17;16.77;;;14.98;;
60819;SDS011;46641;48.904;9.126;2024-03-06T12:20:12;23.33;;;21.02;;
60819;SDS011;46641;48.904;9.126;2024-03-06T12:25:05;17.50;;;15.30;;
60819;SDS011;46641;48.904;9.126;2024-03-06T12:29:56;20.20;;;18.10;;
60819;SDS011;46641;48.904;9.126;2024-03-06T12:34:56;18.35;;;16.15;;
60819;SDS011;46641;48.904;9.126;2024-03-06T12:39:49;19.60;;;16.17;;
60819;SDS011;46641;48.904;9.126;2024-03-06T12:44:39;17.65;;;15.50;;
60819;SDS011;46641;48.904;9.126;2024-03-06T12:49:30;16.37;;;14.77;;
60819;SDS011;46641;48.904;9.126;2024-03-06T12:54:20;16.52;;;14.52;;
60819;SDS011;46641;48.904;9.126;2024-03-06T12:59:11;15.97;;;14.33;;
60819;SDS011;46641;48.904;9.126;2024-03-06T13:04:01;17.58;;;15.45;;
60819;SDS011;46641;48.904;9.126;2024-03-06T13:08:51;18.10;;;15.63;;
60819;SDS011;46641;48.904;9.126;2024-03-06T13:13:42;15.68;;;14.20;;
60819;SDS011;46641;48.904;9.126;2024-03-06T13:18:32;15.03;;;13.47;;
60819;SDS011;46641;48.904;9.126;2024-03-06T13:23:22;14.33;;;12.83;;
60819;SDS011;46641;48.904;9.126;2024-03-06T13:28:13;14.57;;;13.17;;
60819;SDS011;46641;48.904;9.126;2024-03-06T13:33:04;15.23;;;12.90;;
60819;SDS011;46641;48.904;9.126;2024-03-06T13:37:55;13.27;;;11.87;;
60819;SDS011;46641;48.904;9.126;2024-03-06T13:42:45;14.00;;;12.43;;
60819;SDS011;46641;48.904;9.126;2024-03-06T13:47:36;14.77;;;13.07;;
60819;SDS011;46641;48.904;9.126;2024-03-06T13:52:26;13.68;;;12.27;;
60819;SDS011;46641;48.904;9.126;2024-03-06T13:57:16;14.18;;;12.40;;
60819;SDS011;46641;48.904;9.126;2024-03-06T14:02:07;14.73;;;13.33;;
60819;SDS011;46641;48.904;9.126;2024-03-06T14:06:57;14.23;;;12.93;;
60819;SDS011;46641;48.904;9.126;2024-03-06T14:11:49;13.77;;;12.27;;
60819;SDS011;46641;48.904;9.126;2024-03-06T14:16:40;16.87;;;15.27;;
60819;SDS011;46641;48.904;9.126;2024-03-06T14:21:31;15.50;;;14.00;;
60819;SDS011;46641;48.904;9.126;2024-03-06T14:26:21;16.13;;;14.40;;
60819;SDS011;46641;48.904;9.126;2024-03-06T14:31:12;17.57;;;15.03;;
60819;SDS011;46641;48.904;9.126;2024-03-06T14:36:03;17.85;;;16.05;;
60819;SDS011;46641;48.904;9.126;2024-03-06T14:40:53;14.97;;;12.73;;
60819;SDS011;46641;48.904;9.126;2024-03-06T14:45:45;15.30;;;13.70;;
60819;SDS011;46641;48.904;9.126;2024-03-06T14:50:35;15.60;;;14.00;;
60819;SDS011;46641;48.904;9.126;2024-03-06T14:55:26;15.23;;;13.63;;
60819;SDS011;46641;48.904;9.126;2024-03-06T15:00:16;15.37;;;13.57;;
60819;SDS011;46641;48.904;9.126;2024-03-06T15:05:11;13.73;;;12.30;;
60819;SDS011;46641;48.904;9.126;2024-03-06T15:10:02;14.93;;;12.93;;
60819;SDS011;46641;48.904;9.126;2024-03-06T15:14:52;15.67;;;14.03;;
60819;SDS011;46641;48.904;9.126;2024-03-06T15:19:44;15.33;;;13.70;;
60819;SDS011;46641;48.904;9.126;2024-03-06T15:24:34;16.63;;;13.87;;
60819;SDS011;46641;48.904;9.126;2024-03-06T15:29:25;15.03;;;12.83;;
60819;SDS011;46641;48.904;9.126;2024-03-06T15:34:15;19.37;;;17.27;;
60819;SDS011;46641;48.904;9.126;2024-03-06T15:39:05;18.38;;;14.00;;
60819;SDS011;46641;48.904;9.126;2024-03-06T15:43:56;16.60;;;13.80;;
60819;SDS011;46641;48.904;9.126;2024-03-06T15:48:46;16.67;;;14.07;;
60819;SDS011;46641;48.904;9.126;2024-03-06T15:53:37;16.42;;;13.88;;
60819;SDS011;46641;48.904;9.126;2024-03-06T15:58:27;17.40;;;14.00;;
60819;SDS011;46641;48.904;9.126;2024-03-06T16:03:18;15.93;;;13.47;;
60819;SDS011;46641;48.904;9.126;2024-03-06T16:08:08;18.02;;;13.65;;
60819;SDS011;46641;48.904;9.126;2024-03-06T16:12:58;15.37;;;13.77;;
60819;SDS011;46641;48.904;9.126;2024-03-06T16:17:49;18.33;;;13.55;;
60819;SDS011;46641;48.904;9.126;2024-03-06T16:22:39;13.82;;;12.30;;
60819;SDS011;46641;48.904;9.126;2024-03-06T16:27:29;16.60;;;13.30;;
60819;SDS011;46641;48.904;9.126;2024-03-06T16:32:20;15.80;;;13.00;;
60819;SDS011;46641;48.904;9.126;2024-03-06T16:37:10;17.37;;;13.03;;
60819;SDS011;46641;48.904;9.126;2024-03-06T16:42:00;18.02;;;13.90;;
60819;SDS011;46641;48.904;9.126;2024-03-06T16:46:50;15.27;;;13.68;;
60819;SDS011;46641;48.904;9.126;2024-03-06T16:51:41;17.00;;;13.77;;
60819;SDS011;46641;48.904;9.126;2024-03-06T16:56:31;18.30;;;15.10;;
60819;SDS011;46641;48.904;9.126;2024-03-06T17:01:21;17.23;;;14.77;;
60819;SDS011;46641;48.904;9.126;2024-03-06T17:06:12;17.23;;;14.80;;
60819;SDS011;46641;48.904;9.126;2024-03-06T17:11:03;16.17;;;13.47;;
60819;SDS011;46641;48.904;9.126;2024-03-06T17:15:53;17.33;;;14.13;;
60819;SDS011;46641;48.904;9.126;2024-03-06T17:20:44;18.77;;;14.83;;
60819;SDS011;46641;48.904;9.126;2024-03-06T17:25:35;16.13;;;13.90;;
60819;SDS011;46641;48.904;9.126;2024-03-06T17:30:25;16.17;;;13.80;;
60819;SDS011;46641;48.904;9.126;2024-03-06T17:35:17;16.13;;;13.00;;
60819;SDS011;46641;48.904;9.126;2024-03-06T17:40:08;16.00;;;13.07;;
60819;SDS011;46641;48.904;9.126;2024-03-06T17:45:00;17.03;;;12.43;;
60819;SDS011;46641;48.904;9.126;2024-03-06T17:49:51;15.47;;;13.10;;
60819;SDS011;46641;48.904;9.126;2024-03-06T17:54:42;15.17;;;13.03;;
60819;SDS011;46641;48.904;9.126;2024-03-06T17:59:33;16.30;;;14.60;;
60819;SDS011;46641;48.904;9.126;2024-03-06T18:04:23;17.97;;;13.80;;
60819;SDS011;46641;48.904;9.126;2024-03-06T18:09:14;14.33;;;12.83;;
60819;SDS011;46641;48.904;9.126;2024-03-06T18:14:05;17.00;;;13.47;;
60819;SDS011;46641;48.904;9.126;2024-03-06T18:18:55;14.85;;;13.35;;
60819;SDS011;46641;48.904;9.126;2024-03-06T18:23:45;15.10;;;12.25;;
60819;SDS011;46641;48.904;9.126;2024-03-06T18:28:36;15.00;;;12.50;;
60819;SDS011;46641;48.904;9.126;2024-03-06T18:33:26;15.13;;;13.33;;
60819;SDS011;46641;48.904;9.126;2024-03-06T18:38:17;16.57;;;13.97;;
60819;SDS011;46641;48.904;9.126;2024-03-06T18:43:07;15.65;;;14.10;;
60819;SDS011;46641;48.904;9.126;2024-03-06T18:47:58;14.70;;;12.73;;
60819;SDS011;46641;48.904;9.126;2024-03-06T18:52:49;17.63;;;14.30;;
60819;SDS011;46641;48.904;9.126;2024-03-06T18:57:39;22.85;;;14.82;;
60819;SDS011;46641;48.904;9.126;2024-03-06T19:02:30;17.80;;;14.37;;
60819;SDS011;46641;48.904;9.126;2024-03-06T19:07:20;18.07;;;15.00;;
60819;SDS011;46641;48.904;9.126;2024-03-06T19:12:11;18.23;;;14.73;;
60819;SDS011;46641;48.904;9.126;2024-03-06T19:17:01;18.93;;;14.63;;
60819;SDS011;46641;48.904;9.126;2024-03-06T19:21:51;15.97;;;14.17;;
60819;SDS011;46641;48.904;9.126;2024-03-06T19:26:43;16.63;;;14.37;;
60819;SDS011;46641;48.904;9.126;2024-03-06T19:31:33;18.20;;;16.00;;
60819;SDS011;46641;48.904;9.126;2024-03-06T19:36:25;18.40;;;16.33;;
60819;SDS011;46641;48.904;9.126;2024-03-06T19:41:15;18.23;;;15.35;;
60819;SDS011;46641;48.904;9.126;2024-03-06T19:46:05;18.03;;;16.03;;
60819;SDS011;46641;48.904;9.126;2024-03-06T19:50:56;20.83;;;16.93;;
60819;SDS011;46641;48.904;9.126;2024-03-06T19:55:46;19.67;;;16.02;;
60819;SDS011;46641;48.904;9.126;2024-03-06T20:00:38;18.83;;;16.77;;
60819;SDS011;46641;48.904;9.126;2024-03-06T20:05:28;23.03;;;16.67;;
60819;SDS011;46641;48.904;9.126;2024-03-06T20:10:18;19.93;;;16.27;;
60819;SDS011;46641;48.904;9.126;2024-03-06T20:15:09;21.27;;;16.47;;
60819;SDS011;46641;48.904;9.126;2024-03-06T20:19:59;19.83;;;16.03;;
60819;SDS011;46641;48.904;9.126;2024-03-06T20:24:50;19.00;;;15.57;;
60819;SDS011;46641;48.904;9.126;2024-03-06T20:29:40;21.00;;;15.00;;
60819;SDS011;46641;48.904;9.126;2024-03-06T20:34:30;20.95;;;16.17;;
60819;SDS011;46641;48.904;9.126;2024-03-06T20:39:21;20.43;;;16.33;;
60819;SDS011;46641;48.904;9.126;2024-03-06T20:44:12;23.17;;;18.47;;
60819;SDS011;46641;48.904;9.126;2024-03-06T20:49:04;22.60;;;16.70;;
60819;SDS011;46641;48.904;9.126;2024-03-06T20:53:57;21.13;;;16.70;;
60819;SDS011;46641;48.904;9.126;2024-03-06T20:58:49;18.10;;;15.70;;
60819;SDS011;46641;48.904;9.126;2024-03-06T21:03:40;20.73;;;16.67;;
60819;SDS011;46641;48.904;9.126;2024-03-06T21:08:30;22.48;;;17.35;;
60819;SDS011;46641;48.904;9.126;2024-03-06T21:13:20;25.50;;;17.38;;
60819;SDS011;46641;48.904;9.126;2024-03-06T21:18:11;19.73;;;16.35;;
60819;SDS011;46641;48.904;9.126;2024-03-06T21:23:01;22.70;;;16.70;;
60819;SDS011;46641;48.904;9.126;2024-03-06T21:27:52;20.37;;;16.27;;
60819;SDS011;46641;48.904;9.126;2024-03-06T21:32:43;21.30;;;16.97;;
60819;SDS011;46641;48.904;9.126;2024-03-06T21:37:34;22.23;;;17.70;;
60819;SDS011;46641;48.904;9.126;2024-03-06T21:42:24;22.63;;;16.93;;
60819;SDS011;46641;48.904;9.126;2024-03-06T21:47:15;20.67;;;16.40;;
60819;SDS011;46641;48.904;9.126;2024-03-06T21:52:05;20.27;;;15.87;;
60819;SDS011;46641;48.904;9.126;2024-03-06T21:56:57;20.00;;;16.40;;
60819;SDS011;46641;48.904;9.126;2024-03-06T22:01:47;20.77;;;16.80;;
60819;SDS011;46641;48.904;9.126;2024-03-06T22:06:38;18.63;;;15.50;;
60819;SDS011;46641;48.904;9.126;2024-03-06T22:11:28;17.90;;;14.67;;
60819;SDS011;46641;48.904;9.126;2024-03-06T22:16:19;24.05;;;16.45;;
60819;SDS011;46641;48.904;9.126;2024-03-06T22:21:09;18.98;;;14.55;;
60819;SDS011;46641;48.904;9.126;2024-03-06T22:25:59;22.37;;;14.67;;
60819;SDS011;46641;48.904;9.126;2024-03-06T22:30:49;19.20;;;15.23;;
60819;SDS011;46641;48.904;9.126;2024-03-06T22:35:40;18.97;;;15.97;;
60819;SDS011;46641;48.904;9.126;2024-03-06T22:40:30;20.83;;;15.13;;
60819;SDS011;46641;48.904;9.126;2024-03-06T22:45:21;22.80;;;16.63;;
60819;SDS011;46641;48.904;9.126;2024-03-06T22:50:12;24.07;;;17.03;;
60819;SDS011;46641;48.904;9.126;2024-03-06T22:55:02;17.95;;;15.10;;
60819;SDS011;46641;48.904;9.126;2024-03-06T22:59:53;21.33;;;16.37;;
60819;SDS011;46641;48.904;9.126;2024-03-06T23:04:43;18.33;;;14.30;;
60819;SDS011;46641;48.904;9.126;2024-03-06T23:09:33;18.48;;;15.18;;
60819;SDS011;46641;48.904;9.126;2024-03-06T23:14:23;18.20;;;14.13;;
60819;SDS011;46641;48.904;9.126;2024-03-06T23:19:14;19.02;;;15.70;;
60819;SDS011;46641;48.904;9.126;2024-03-06T23:24:05;19.80;;;15.43;;
60819;SDS011;46641;48.904;9.126;2024-03-06T23:28:56;20.43;;;15.30;;
60819;SDS011;46641;48.904;9.126;2024-03-06T23:33:47;20.60;;;15.73;;
60819;SDS011;46641;48.904;9.126;2024-03-06T23:38:37;21.23;;;16.10;;
60819;SDS011;46641;48.904;9.126;2024-03-06T23:43:29;25.03;;;17.47;;
60819;SDS011;46641;48.904;9.126;2024-03-06T23:48:23;20.87;;;16.03;;
60819;SDS011;46641;48.904;9.126;2024-03-06T23:53:14;20.90;;;16.47;;
60819;SDS011;46641;48.904;9.126;2024-03-06T23:58:04;21.50;;;16.53;;
